createdAt,value
2018-01-30T00:01:06.194Z,66.43
2018-01-30T00:02:43.494Z,66.40
2018-01-30T00:04:22.651Z,66.40
2018-01-30T00:06:00.218Z,66.40
2018-01-30T00:07:37.543Z,66.39
2018-01-30T00:09:14.362Z,66.37
2018-01-30T06:31:07.516Z,66.31
2018-01-30T06:32:43.959Z,66.32
2018-01-30T06:34:21.068Z,66.32
2018-01-30T06:35:57.853Z,66.33
2018-01-30T06:37:35.017Z,66.34
2018-01-30T06:39:11.409Z,66.35
2018-01-30T06:40:47.967Z,66.36
2018-01-30T06:42:25.579Z,66.37
2018-01-30T06:44:02.028Z,66.38
2018-01-30T06:45:38.502Z,66.40
2018-01-30T06:47:15.725Z,66.41
2018-01-30T06:48:53.004Z,66.45
2018-01-30T06:50:29.602Z,66.48
2018-01-30T06:52:06.095Z,66.49
2018-01-30T06:53:42.501Z,66.49
2018-01-30T06:55:18.942Z,66.45
2018-01-30T06:56:56.953Z,66.41
2018-01-30T06:58:33.528Z,66.37
2018-01-30T07:00:10.147Z,66.35
2018-01-30T07:01:46.827Z,66.32
2018-01-30T07:03:23.330Z,66.27
2018-01-30T07:04:59.643Z,66.26
2018-01-30T07:06:36.094Z,66.21
2018-01-30T07:08:12.917Z,66.18
2018-01-30T07:09:50.103Z,66.19
2018-01-30T07:11:27.478Z,66.18
2018-01-30T07:13:04.267Z,66.20
2018-01-30T07:14:41.790Z,66.17
2018-01-30T07:16:18.259Z,66.16
2018-01-30T07:17:55.412Z,66.14
2018-01-30T07:19:31.856Z,66.11
2018-01-30T07:21:08.527Z,66.07
2018-01-30T07:22:44.913Z,66.05
2018-01-30T07:24:21.360Z,66.03
2018-01-30T07:25:58.974Z,66.02
2018-01-30T07:27:36.641Z,66.01
2018-01-30T07:29:13.408Z,66.00
2018-01-30T07:30:50.807Z,66.00
2018-01-30T07:32:27.254Z,66.03
2018-01-30T07:34:04.122Z,66.07
2018-01-30T07:35:40.602Z,66.08
2018-01-30T07:37:17.133Z,66.10
2018-01-30T07:38:53.525Z,66.12
2018-01-30T07:40:30.004Z,66.12
2018-01-30T07:42:06.437Z,66.12
2018-01-30T07:43:43.054Z,66.13
2018-01-30T07:45:19.554Z,66.11
2018-01-30T07:46:56.239Z,66.10
2018-01-30T07:48:32.770Z,66.09
2018-01-30T07:50:09.298Z,66.09
2018-01-30T07:51:46.186Z,66.07
2018-01-30T07:53:23.012Z,66.08
2018-01-30T07:55:00.161Z,66.07
2018-01-30T07:56:37.049Z,66.06
2018-01-30T07:58:13.461Z,66.05
2018-01-30T07:59:51.291Z,66.05
2018-01-30T08:01:27.738Z,66.07
2018-01-30T08:03:04.876Z,66.09
2018-01-30T08:04:42.053Z,66.10
2018-01-30T08:06:18.939Z,66.10
2018-01-30T08:07:58.931Z,66.13
2018-01-30T08:09:35.424Z,66.15
2018-01-30T08:11:12.174Z,66.17
2018-01-30T08:12:49.962Z,66.14
2018-01-30T08:14:26.309Z,66.21
2018-01-30T08:16:03.706Z,66.22
2018-01-30T08:17:40.214Z,66.26
2018-01-30T08:19:16.951Z,66.25
2018-01-30T08:20:53.520Z,66.25
2018-01-30T08:22:30.805Z,66.25
2018-01-30T08:24:07.494Z,66.25
2018-01-30T08:25:44.767Z,66.27
2018-01-30T08:27:21.264Z,66.30
2018-01-30T08:28:58.397Z,66.38
2018-01-30T08:30:34.744Z,66.37
2018-01-30T08:32:11.452Z,66.41
2018-01-30T08:33:47.949Z,66.43
2018-01-30T08:35:25.849Z,66.42
2018-01-30T08:37:03.051Z,66.41
2018-01-30T08:38:40.843Z,66.40
2018-01-30T08:40:17.458Z,66.41
2018-01-30T08:41:53.845Z,66.44
2018-01-30T08:43:30.286Z,66.47
2018-01-30T08:45:08.077Z,66.52
2018-01-30T08:46:45.220Z,66.54
2018-01-30T08:48:21.683Z,66.56
2018-01-30T08:49:58.080Z,66.52
2018-01-30T08:51:34.730Z,66.58
2018-01-30T08:53:11.194Z,66.60
2018-01-30T08:54:47.494Z,66.62
2018-01-30T08:56:23.967Z,66.61
2018-01-30T08:58:01.607Z,66.60
2018-01-30T08:59:38.356Z,66.58
2018-01-30T09:01:14.823Z,66.59
2018-01-30T09:02:51.110Z,66.62
2018-01-30T09:04:27.840Z,66.66
2018-01-30T09:06:05.191Z,66.68
2018-01-30T09:07:41.643Z,66.71
2018-01-30T09:09:18.092Z,66.73
2018-01-30T09:10:54.912Z,66.74
2018-01-30T09:12:31.816Z,66.76
2018-01-30T09:14:08.289Z,66.78
2018-01-30T09:15:45.341Z,66.81
2018-01-30T09:17:22.843Z,66.83
2018-01-30T09:18:59.311Z,66.84
2018-01-30T09:20:35.857Z,66.85
2018-01-30T09:22:12.335Z,66.86
2018-01-30T09:23:48.963Z,66.86
2018-01-30T09:25:26.190Z,66.84
2018-01-30T09:27:02.603Z,66.87
2018-01-30T09:28:39.845Z,66.89
2018-01-30T09:30:17.865Z,66.90
2018-01-30T09:31:54.250Z,66.94
2018-01-30T09:33:31.510Z,66.95
2018-01-30T09:35:07.906Z,66.91
2018-01-30T09:36:44.924Z,66.89
2018-01-30T09:38:21.581Z,66.89
2018-01-30T09:39:58.105Z,66.90
2018-01-30T09:41:34.555Z,66.91
2018-01-30T09:43:11.374Z,66.94
2018-01-30T09:44:47.892Z,66.96
2018-01-30T09:46:24.347Z,66.97
2018-01-30T09:48:00.802Z,66.99
2018-01-30T09:49:37.603Z,67.00
2018-01-30T09:51:13.982Z,66.99
2018-01-30T09:52:51.291Z,66.98
2018-01-30T09:54:27.988Z,66.98
2018-01-30T09:56:04.874Z,66.99
2018-01-30T09:57:41.719Z,66.98
2018-01-30T09:59:18.892Z,67.00
2018-01-30T10:00:55.491Z,67.00
2018-01-30T10:02:32.356Z,67.01
2018-01-30T10:04:09.527Z,67.03
2018-01-30T10:05:46.320Z,67.06
2018-01-30T10:07:22.735Z,67.08
2018-01-30T10:08:59.380Z,67.09
2018-01-30T10:10:35.723Z,67.11
2018-01-30T10:12:12.349Z,67.13
2018-01-30T10:13:48.804Z,67.15
2018-01-30T10:15:25.783Z,67.16
2018-01-30T10:17:03.108Z,67.19
2018-01-30T10:18:39.619Z,67.18
2018-01-30T10:20:16.561Z,67.17
2018-01-30T10:21:53.007Z,67.17
2018-01-30T10:23:29.365Z,67.17
2018-01-30T10:25:05.932Z,67.16
2018-01-30T10:26:42.382Z,67.16
2018-01-30T10:28:19.451Z,67.17
2018-01-30T10:29:55.812Z,67.18
2018-01-30T10:31:33.545Z,67.19
2018-01-30T10:33:09.940Z,67.21
2018-01-30T10:34:47.572Z,67.22
2018-01-30T10:36:24.012Z,67.24
2018-01-30T10:38:00.520Z,67.25
2018-01-30T10:39:37.871Z,67.28
2018-01-30T10:41:15.036Z,67.25
2018-01-30T10:42:51.642Z,67.26
2018-01-30T10:44:28.146Z,67.28
2018-01-30T10:46:04.550Z,67.30
2018-01-30T10:47:42.402Z,67.32
2018-01-30T10:49:19.784Z,67.33
2018-01-30T10:50:57.206Z,67.35
2018-01-30T10:52:37.370Z,67.37
2018-01-30T10:54:14.497Z,67.38
2018-01-30T10:55:51.705Z,67.39
2018-01-30T10:57:29.105Z,67.41
2018-01-30T10:59:05.786Z,67.42
2018-01-30T11:00:42.999Z,67.42
2018-01-30T11:02:19.343Z,67.43
2018-01-30T11:03:56.639Z,67.44
2018-01-30T11:07:29.497Z,67.43
2018-01-30T11:09:06.861Z,67.42
2018-01-30T11:10:44.424Z,67.44
2018-01-30T11:12:22.161Z,67.42
2018-01-30T11:13:58.598Z,67.40
2018-01-30T11:15:36.770Z,67.40
2018-01-30T11:17:14.336Z,67.40
2018-01-30T11:18:51.172Z,67.39
2018-01-30T11:20:28.447Z,67.39
2018-01-30T11:22:04.901Z,67.38
2018-01-30T11:23:41.347Z,67.38
2018-01-30T11:25:18.370Z,67.36
2018-01-30T11:26:54.834Z,67.36
2018-01-30T11:28:31.352Z,67.36
2018-01-30T11:30:09.401Z,67.34
2018-01-30T11:31:47.326Z,67.35
2018-01-30T11:33:23.923Z,67.36
2018-01-30T11:35:00.536Z,67.35
2018-01-30T11:36:37.161Z,67.36
2018-01-30T11:38:14.985Z,67.36
2018-01-30T11:39:52.271Z,67.33
2018-01-30T11:41:29.927Z,67.30
2018-01-30T11:43:07.117Z,67.34
2018-01-30T11:44:44.068Z,67.34
2018-01-30T11:46:20.477Z,67.32
2018-01-30T11:47:57.184Z,67.34
2018-01-30T11:49:35.505Z,67.35
2018-01-30T11:51:12.029Z,67.33
2018-01-30T11:52:49.549Z,67.32
2018-01-30T11:57:39.132Z,67.30
2018-01-30T11:59:15.811Z,67.28
2018-01-30T12:00:53.139Z,67.29
2018-01-30T12:02:29.610Z,67.29
2018-01-30T12:04:08.324Z,67.26
2018-01-30T12:05:44.985Z,67.26
2018-01-30T12:07:22.700Z,67.24
2018-01-30T12:08:59.232Z,67.24
2018-01-30T12:10:35.961Z,67.23
2018-01-30T12:12:12.559Z,67.23
2018-01-30T12:13:49.147Z,67.24
2018-01-30T12:15:26.015Z,67.25
2018-01-30T12:17:02.675Z,67.23
2018-01-30T12:18:40.367Z,67.22
2018-01-30T12:20:19.935Z,67.24
2018-01-30T12:21:56.436Z,67.21
2018-01-30T12:23:34.888Z,67.19
2018-01-30T12:25:11.528Z,67.20
2018-01-30T12:26:48.041Z,67.18
2018-01-30T12:28:24.544Z,67.16
2018-01-30T12:30:05.904Z,67.14
2018-01-30T12:31:42.546Z,67.13
2018-01-30T12:33:19.554Z,67.11
2018-01-30T12:34:56.839Z,67.09
2018-01-30T12:36:33.397Z,67.09
2018-01-30T12:38:10.366Z,67.08
2018-01-30T12:39:46.913Z,67.06
2018-01-30T12:41:23.403Z,67.06
2018-01-30T12:43:00.260Z,67.07
2018-01-30T12:44:36.744Z,67.08
2018-01-30T12:46:13.247Z,67.08
2018-01-30T12:47:49.746Z,67.09
2018-01-30T12:49:26.842Z,67.07
2018-01-30T12:51:04.271Z,67.09
2018-01-30T12:52:40.952Z,67.09
2018-01-30T12:54:17.560Z,67.08
2018-01-30T12:55:54.394Z,67.09
2018-01-30T12:57:31.139Z,67.10
2018-01-30T12:59:08.411Z,67.11
2018-01-30T13:00:46.359Z,67.12
2018-01-30T13:02:23.104Z,67.13
2018-01-30T13:03:59.638Z,67.14
2018-01-30T13:05:36.202Z,67.13
2018-01-30T13:07:13.077Z,67.14
2018-01-30T13:08:50.566Z,67.13
2018-01-30T13:10:27.047Z,67.13
2018-01-30T13:12:03.890Z,67.13
2018-01-30T13:13:40.290Z,67.11
2018-01-30T13:15:17.699Z,67.07
2018-01-30T13:16:54.919Z,67.08
2018-01-30T13:18:31.425Z,67.08
2018-01-30T13:20:07.917Z,67.06
2018-01-30T13:21:46.661Z,67.04
2018-01-30T13:23:25.028Z,67.05
2018-01-30T13:25:01.574Z,67.04
2018-01-30T13:26:38.173Z,67.02
2018-01-30T13:28:15.186Z,67.00
2018-01-30T13:29:52.433Z,66.99
2018-01-30T13:31:28.829Z,66.99
2018-01-30T13:33:05.963Z,66.97
2018-01-30T13:34:42.893Z,66.96
2018-01-30T13:36:19.628Z,66.94
2018-01-30T13:37:56.295Z,66.93
2018-01-30T13:39:33.457Z,66.92
2018-01-30T13:41:10.120Z,66.92
2018-01-30T13:42:46.724Z,66.91
2018-01-30T13:44:23.148Z,66.92
2018-01-30T13:45:59.785Z,66.92
2018-01-30T13:47:36.828Z,66.91
2018-01-30T13:49:13.445Z,66.92
2018-01-30T13:50:50.050Z,66.91
2018-01-30T13:52:27.420Z,66.92
2018-01-30T13:54:04.318Z,66.90
2018-01-30T13:55:41.516Z,66.91
2018-01-30T13:57:18.909Z,66.88
2018-01-30T13:58:55.474Z,66.86
2018-01-30T14:00:32.489Z,66.83
2018-01-30T14:02:09.035Z,66.81
2018-01-30T14:03:46.373Z,66.80
2018-01-30T14:05:23.821Z,66.80
2018-01-30T14:07:00.711Z,66.80
2018-01-30T14:08:40.035Z,66.77
2018-01-30T14:10:16.914Z,66.75
2018-01-30T14:11:53.810Z,66.74
2018-01-30T14:13:32.269Z,66.74
2018-01-30T14:15:09.588Z,66.73
2018-01-30T14:16:47.117Z,66.71
2018-01-30T14:18:25.368Z,66.70
2018-01-30T14:20:02.617Z,66.69
2018-01-30T14:21:39.230Z,66.69
2018-01-30T14:23:15.906Z,66.68
2018-01-30T14:24:53.569Z,66.66
2018-01-30T14:26:30.488Z,66.66
2018-01-30T14:28:07.116Z,66.65
2018-01-30T14:29:43.858Z,66.66
2018-01-30T14:31:22.531Z,66.65
2018-01-30T14:32:59.717Z,66.65
2018-01-30T14:34:38.777Z,66.66
2018-01-30T14:36:17.934Z,66.67
2018-01-30T14:37:54.594Z,66.67
2018-01-30T14:39:33.623Z,66.71
2018-01-30T14:41:10.123Z,66.64
2018-01-30T14:42:48.088Z,66.64
2018-01-30T14:44:24.658Z,66.63
2018-01-30T14:46:13.110Z,66.63
2018-01-30T14:47:50.733Z,66.62
2018-01-30T14:49:29.081Z,66.60
2018-01-30T14:51:06.649Z,66.59
2018-01-30T14:52:43.750Z,66.58
2018-01-30T14:54:22.519Z,66.57
2018-01-30T14:56:00.735Z,66.56
2018-01-30T14:57:37.511Z,66.55
2018-01-30T14:59:16.459Z,66.54
2018-01-30T15:00:54.885Z,66.53
2018-01-30T15:02:31.589Z,66.52
2018-01-30T15:04:08.299Z,66.51
2018-01-30T15:05:47.345Z,66.49
2018-01-30T15:07:24.539Z,66.47
2018-01-30T15:09:01.979Z,66.46
2018-01-30T15:10:38.655Z,66.45
2018-01-30T15:12:16.673Z,66.43
2018-01-30T15:13:53.340Z,66.42
2018-01-30T15:15:30.653Z,66.42
2018-01-30T15:17:07.884Z,66.40
2018-01-30T15:18:47.694Z,66.42
2018-01-30T15:20:25.608Z,66.40
2018-01-30T15:22:04.374Z,66.39
2018-01-30T15:23:53.098Z,66.37
2018-01-30T15:25:36.096Z,66.33
2018-01-30T15:27:15.881Z,66.33
2018-01-30T15:28:54.294Z,66.30
2018-01-30T15:30:31.631Z,66.29
2018-01-30T15:32:09.764Z,66.28
2018-01-30T15:33:48.292Z,66.27
2018-01-30T15:35:28.567Z,66.25
2018-01-30T15:37:08.543Z,66.23
2018-01-30T15:38:48.342Z,66.20
2018-01-30T15:40:25.216Z,66.17
2018-01-30T15:42:02.292Z,66.16
2018-01-30T15:43:39.589Z,66.16
2018-01-30T15:45:18.822Z,66.14
2018-01-30T15:46:56.010Z,66.11
2018-01-30T15:48:34.561Z,66.06
2018-01-30T15:50:11.460Z,66.04
2018-01-30T15:51:51.393Z,66.02
2018-01-30T15:53:28.723Z,66.03
2018-01-30T15:55:05.861Z,66.02
2018-01-30T15:56:44.005Z,65.99
2018-01-30T15:58:21.283Z,66.00
2018-01-30T15:59:57.976Z,65.99
2018-01-30T16:01:35.028Z,66.00
2018-01-30T16:03:13.796Z,66.00
2018-01-30T16:04:52.596Z,66.00
2018-01-30T16:06:30.132Z,65.99
2018-01-30T16:08:08.108Z,65.98
2018-01-30T16:09:45.231Z,65.98
2018-01-30T16:11:23.654Z,65.96
2018-01-30T16:13:00.911Z,65.92
2018-01-30T16:14:39.552Z,65.89
2018-01-30T16:16:16.791Z,65.86
2018-01-30T16:17:56.571Z,65.85
2018-01-30T16:19:34.069Z,65.85
2018-01-30T16:21:12.247Z,65.84
2018-01-30T16:22:59.105Z,65.82
2018-01-30T16:24:36.215Z,65.79
2018-01-30T16:26:12.767Z,65.76
2018-01-30T16:27:50.660Z,65.73
2018-01-30T16:29:27.534Z,65.70
2018-01-30T16:31:05.923Z,65.68
2018-01-30T16:32:43.455Z,65.66
2018-01-30T16:34:20.688Z,65.65
2018-01-30T16:35:57.339Z,65.63
2018-01-30T16:37:36.912Z,65.64
2018-01-30T16:39:13.624Z,65.64
2018-01-30T16:40:51.850Z,65.62
2018-01-30T16:42:29.228Z,65.59
2018-01-30T16:44:05.726Z,65.55
2018-01-30T16:45:44.802Z,65.51
2018-01-30T16:47:22.139Z,65.45
2018-01-30T16:48:58.612Z,65.39
2018-01-30T16:50:35.428Z,65.34
2018-01-30T16:52:12.426Z,65.27
2018-01-30T16:53:48.917Z,65.25
2018-01-30T16:55:25.638Z,65.22
2018-01-30T16:57:05.688Z,65.19
2018-01-30T16:58:42.185Z,65.16
2018-01-30T17:00:20.156Z,65.12
2018-01-30T17:01:56.833Z,65.11
2018-01-30T17:03:33.934Z,65.10
2018-01-30T17:05:10.554Z,65.09
2018-01-30T17:06:47.575Z,65.09
2018-01-30T17:08:24.128Z,65.09
2018-01-30T17:10:01.108Z,65.07
2018-01-30T17:11:37.721Z,65.05
2018-01-30T17:13:14.254Z,65.04
2018-01-30T17:14:51.710Z,65.03
2018-01-30T17:16:28.556Z,65.01
2018-01-30T17:18:05.170Z,65.00
2018-01-30T17:19:42.282Z,65.00
2018-01-30T17:21:18.668Z,65.00
2018-01-30T17:22:55.492Z,65.01
2018-01-30T17:24:32.034Z,65.00
2018-01-30T17:26:08.598Z,65.00
2018-01-30T17:27:45.014Z,64.98
2018-01-30T17:29:21.654Z,64.93
2018-01-30T17:30:58.022Z,64.92
2018-01-30T17:32:35.297Z,64.92
2018-01-30T17:34:11.969Z,64.92
2018-01-30T17:35:50.433Z,64.90
2018-01-30T17:37:26.881Z,64.86
2018-01-30T17:39:03.586Z,64.84
2018-01-30T17:40:40.233Z,64.81
2018-01-30T17:42:18.609Z,64.75
2018-01-30T17:43:55.164Z,64.73
2018-01-30T17:45:31.806Z,64.73
2018-01-30T17:47:09.299Z,64.73
2018-01-30T17:48:46.374Z,64.75
2018-01-30T17:50:23.144Z,64.78
2018-01-30T17:51:59.644Z,64.79
2018-01-30T17:53:36.104Z,64.81
2018-01-30T17:55:13.293Z,64.82
2018-01-30T17:56:50.557Z,64.83
2018-01-30T17:58:27.310Z,64.83
2018-01-30T18:00:06.505Z,64.85
2018-01-30T18:01:43.295Z,64.84
2018-01-30T18:03:20.712Z,64.81
2018-01-30T18:04:58.465Z,64.80
2018-01-30T18:06:35.311Z,64.78
2018-01-30T18:08:12.094Z,64.74
2018-01-30T18:09:48.667Z,64.70
2018-01-30T18:11:25.679Z,64.65
2018-01-30T18:13:03.007Z,64.62
2018-01-30T18:14:39.954Z,64.61
2018-01-30T18:16:16.664Z,64.61
2018-01-30T18:17:53.318Z,64.61
2018-01-30T18:19:29.895Z,64.60
2018-01-30T18:21:07.028Z,64.62
2018-01-30T18:22:43.733Z,64.62
2018-01-30T18:24:22.982Z,64.57
2018-01-30T18:25:59.599Z,64.55
2018-01-30T18:27:36.488Z,64.55
2018-01-30T18:29:13.026Z,64.55
2018-01-30T18:30:50.303Z,64.57
2018-01-30T18:32:27.277Z,64.53
2018-01-30T18:34:04.095Z,64.52
2018-01-30T18:35:41.621Z,64.53
2018-01-30T18:37:18.347Z,64.55
2018-01-30T18:38:55.088Z,64.56
2018-01-30T18:40:33.474Z,64.57
2018-01-30T18:42:10.928Z,64.58
2018-01-30T18:43:47.609Z,64.59
2018-01-30T18:45:24.390Z,64.59
2018-01-30T18:47:01.536Z,64.59
2018-01-30T18:48:39.106Z,64.58
2018-01-30T18:50:15.592Z,64.54
2018-01-30T18:51:54.513Z,64.52
2018-01-30T18:53:36.006Z,64.48
2018-01-30T18:55:18.457Z,64.46
2018-01-30T18:56:56.150Z,64.45
2018-01-30T18:58:32.779Z,64.42
2018-01-30T19:00:10.259Z,64.37
2018-01-30T19:01:46.830Z,64.32
2018-01-30T19:03:24.003Z,64.28
2018-01-30T19:05:01.917Z,64.22
2018-01-30T19:06:40.376Z,64.18
2018-01-30T19:08:17.710Z,64.15
2018-01-30T19:09:55.488Z,64.14
2018-01-30T19:11:32.378Z,64.12
2018-01-30T19:13:10.050Z,64.12
2018-01-30T19:14:49.943Z,64.11
2018-01-30T19:16:27.748Z,64.09
2018-01-30T19:18:07.169Z,64.07
2018-01-30T19:19:44.630Z,64.04
2018-01-30T19:21:25.442Z,64.02
2018-01-30T19:23:02.360Z,64.00
2018-01-30T19:24:40.579Z,63.98
2018-01-30T19:26:18.219Z,63.99
2018-01-30T19:27:55.441Z,63.99
2018-01-30T19:29:33.369Z,64.00
2018-01-30T19:31:10.732Z,64.02
2018-01-30T19:32:47.891Z,64.03
2018-01-30T19:34:29.986Z,64.04
2018-01-30T19:36:08.389Z,64.03
2018-01-30T19:37:47.337Z,64.03
2018-01-30T19:39:24.411Z,64.03
2018-01-30T19:41:01.088Z,64.06
2018-01-30T19:42:37.992Z,64.08
2018-01-30T19:44:14.682Z,64.10
2018-01-30T19:45:53.380Z,64.12
2018-01-30T19:47:30.742Z,64.13
2018-01-30T19:49:07.208Z,64.16
2018-01-30T19:50:43.888Z,64.18
2018-01-30T19:52:20.424Z,64.20
2018-01-30T19:54:03.924Z,64.22
2018-01-30T19:55:44.492Z,64.23
2018-01-30T19:57:21.386Z,64.22
2018-01-30T19:59:00.642Z,64.19
2018-01-30T20:00:37.338Z,64.16
2018-01-30T20:02:13.872Z,64.12
2018-01-30T20:03:50.944Z,64.07
2018-01-30T20:05:28.288Z,64.03
2018-01-30T20:07:05.937Z,63.98
2018-01-30T20:08:42.692Z,63.92
2018-01-30T20:10:19.504Z,63.88
2018-01-30T20:11:56.092Z,63.87
2018-01-30T20:13:32.676Z,63.86
2018-01-30T20:15:09.207Z,63.87
2018-01-30T20:16:46.210Z,63.87
2018-01-30T20:18:23.724Z,63.86
2018-01-30T20:20:00.519Z,63.86
2018-01-30T20:21:37.226Z,63.86
2018-01-30T20:23:14.982Z,63.84
2018-01-30T20:24:52.396Z,63.84
2018-01-30T20:26:34.115Z,63.83
2018-01-30T20:28:11.826Z,63.84
2018-01-30T20:29:48.473Z,63.87
2018-01-30T20:31:26.211Z,63.90
2018-01-30T20:33:02.748Z,63.91
2018-01-30T20:34:39.448Z,63.95
2018-01-30T20:36:16.324Z,63.98
2018-01-30T20:37:54.256Z,63.97
2018-01-30T20:39:31.251Z,63.96
2018-01-30T20:41:08.746Z,63.98
2018-01-30T20:42:46.390Z,63.98
2018-01-30T20:44:23.100Z,64.00
2018-01-30T20:45:59.862Z,64.01
2018-01-30T20:47:38.105Z,64.01
2018-01-30T20:49:16.521Z,64.01
2018-01-30T20:50:54.630Z,63.98
2018-01-30T20:52:32.093Z,63.98
2018-01-30T20:54:08.623Z,63.99
2018-01-30T20:55:45.590Z,64.04
2018-01-30T20:57:22.155Z,64.07
2018-01-30T20:58:59.556Z,64.11
2018-01-30T21:00:37.787Z,64.13
2018-01-30T21:02:14.970Z,64.15
2018-01-30T21:03:51.985Z,64.16
2018-01-30T21:05:28.889Z,64.17
2018-01-30T21:07:05.416Z,64.18
2018-01-30T21:08:42.598Z,64.18
2018-01-30T21:10:20.224Z,64.19
2018-01-30T21:11:56.677Z,64.19
2018-01-30T21:13:33.714Z,64.19
2018-01-30T21:15:12.878Z,64.19
2018-01-30T21:16:54.536Z,64.20
2018-01-30T21:18:31.333Z,64.19
2018-01-30T21:20:13.641Z,64.19
2018-01-30T21:21:51.682Z,64.18
2018-01-30T21:25:19.003Z,64.18
2018-01-30T21:26:56.897Z,64.16
2018-01-30T21:28:33.676Z,64.17
2018-01-30T21:30:10.097Z,64.17
2018-01-30T21:31:46.790Z,64.18
2018-01-30T21:33:23.806Z,64.18
2018-01-30T21:35:00.296Z,64.18
2018-01-30T21:36:37.185Z,64.19
2018-01-30T21:38:14.550Z,64.20
2018-01-30T21:39:51.825Z,64.22
2018-01-30T21:41:28.325Z,64.22
2018-01-30T21:43:05.562Z,64.22
2018-01-30T21:44:43.184Z,64.23
2018-01-30T21:46:20.908Z,64.24
2018-01-30T21:47:57.400Z,64.25
2018-01-30T21:49:34.250Z,64.26
2018-01-30T21:51:10.795Z,64.27
2018-01-30T21:52:48.683Z,64.28
2018-01-30T21:54:25.519Z,64.27
2018-01-30T21:56:03.630Z,64.29
2018-01-30T21:57:40.500Z,64.29
2018-01-30T21:59:16.938Z,64.30
2018-01-30T22:00:53.773Z,64.31
2018-01-30T22:02:30.191Z,64.32
2018-01-30T22:04:07.261Z,64.33
2018-01-30T22:05:44.848Z,64.29
2018-01-30T22:07:21.562Z,64.25
2018-01-30T22:08:58.586Z,64.20
2018-01-30T22:10:36.169Z,64.23
2018-01-30T22:12:13.444Z,64.27
2018-01-30T22:13:49.916Z,64.26
2018-01-30T22:15:28.628Z,64.28
2018-01-30T22:17:06.876Z,64.27
2018-01-30T22:18:43.433Z,64.26
2018-01-30T22:20:19.919Z,64.26
2018-01-30T22:21:56.270Z,64.27
2018-01-30T22:23:33.075Z,64.27
2018-01-30T22:25:09.680Z,64.27
2018-01-30T22:26:46.998Z,64.27
2018-01-30T22:28:24.101Z,64.27
2018-01-30T22:30:03.666Z,64.27
2018-01-30T22:31:40.376Z,64.26
2018-01-30T22:33:16.880Z,64.26
2018-01-30T22:34:53.277Z,64.25
2018-01-30T22:36:29.876Z,64.24
2018-01-30T22:38:06.330Z,64.22
2018-01-30T22:39:42.818Z,64.21
2018-01-30T22:41:19.313Z,64.21
2018-01-30T22:42:57.295Z,64.20
2018-01-30T22:44:33.613Z,64.21
2018-01-30T22:46:10.473Z,64.20
